sensor_id;sensor_type;location;lat;lon;timestamp;P1;durP1;ratioP1;P2;durP2;ratioP2
41783;SDS011;27458;53.236;-6.622;2022-08-18T00:00:07;6.43;;;3.25;;
41783;SDS011;27458;53.236;-6.622;2022-08-18T00:02:37;5.32;;;3.30;;
41783;SDS011;27458;53.236;-6.622;2022-08-18T00:05:05;15.80;;;3.42;;
41783;SDS011;27458;53.236;-6.622;2022-08-18T00:07:32;8.38;;;2.97;;
41783;SDS011;27458;53.236;-6.622;2022-08-18T00:09:58;4.15;;;3.38;;
41783;SDS011;27458;53.236;-6.622;2022-08-18T00:12:30;4.60;;;3.10;;
41783;SDS011;27458;53.236;-6.622;2022-08-18T00:14:58;6.40;;;2.92;;
41783;SDS011;27458;53.236;-6.622;2022-08-18T00:17:30;7.90;;;3.85;;
41783;SDS011;27458;53.236;-6.622;2022-08-18T00:19:56;9.10;;;4.60;;
41783;SDS011;27458;53.236;-6.622;2022-08-18T00:22:22;7.65;;;4.32;;
41783;SDS011;27458;53.236;-6.622;2022-08-18T00:24:50;7.95;;;4.32;;
41783;SDS011;27458;53.236;-6.622;2022-08-18T00:27:28;7.28;;;4.05;;
41783;SDS011;27458;53.236;-6.622;2022-08-18T00:29:59;7.93;;;3.83;;
41783;SDS011;27458;53.236;-6.622;2022-08-18T00:32:30;6.10;;;4.03;;
41783;SDS011;27458;53.236;-6.622;2022-08-18T00:35:04;5.82;;;4.63;;
41783;SDS011;27458;53.236;-6.622;2022-08-18T00:37:36;9.27;;;4.10;;
41783;SDS011;27458;53.236;-6.622;2022-08-18T00:40:05;8.18;;;4.60;;
41783;SDS011;27458;53.236;-6.622;2022-08-18T00:42:36;8.82;;;5.07;;
41783;SDS011;27458;53.236;-6.622;2022-08-18T00:45:08;8.40;;;5.18;;
41783;SDS011;27458;53.236;-6.622;2022-08-18T00:47:48;7.85;;;4.47;;
41783;SDS011;27458;53.236;-6.622;2022-08-18T00:50:22;10.77;;;6.70;;
41783;SDS011;27458;53.236;-6.622;2022-08-18T00:56:26;8.27;;;4.05;;
41783;SDS011;27458;53.236;-6.622;2022-08-18T00:59:20;9.82;;;4.75;;
41783;SDS011;27458;53.236;-6.622;2022-08-18T01:01:59;17.77;;;10.15;;
41783;SDS011;27458;53.236;-6.622;2022-08-18T01:04:30;9.38;;;4.90;;
41783;SDS011;27458;53.236;-6.622;2022-08-18T01:07:04;10.30;;;4.65;;
41783;SDS011;27458;53.236;-6.622;2022-08-18T01:09:54;7.35;;;4.50;;
41783;SDS011;27458;53.236;-6.622;2022-08-18T01:12:24;7.28;;;4.13;;
41783;SDS011;27458;53.236;-6.622;2022-08-18T01:14:51;8.88;;;3.90;;
41783;SDS011;27458;53.236;-6.622;2022-08-18T01:17:18;6.40;;;3.63;;
41783;SDS011;27458;53.236;-6.622;2022-08-18T01:20:02;8.35;;;3.85;;
41783;SDS011;27458;53.236;-6.622;2022-08-18T01:23:03;5.78;;;3.40;;
41783;SDS011;27458;53.236;-6.622;2022-08-18T01:25:41;7.55;;;3.65;;
41783;SDS011;27458;53.236;-6.622;2022-08-18T01:28:31;9.93;;;4.07;;
41783;SDS011;27458;53.236;-6.622;2022-08-18T01:31:00;10.50;;;3.95;;
41783;SDS011;27458;53.236;-6.622;2022-08-18T01:33:27;5.03;;;3.83;;
41783;SDS011;27458;53.236;-6.622;2022-08-18T01:35:59;8.27;;;3.53;;
41783;SDS011;27458;53.236;-6.622;2022-08-18T01:38:26;6.75;;;4.10;;
41783;SDS011;27458;53.236;-6.622;2022-08-18T01:40:52;5.57;;;4.00;;
41783;SDS011;27458;53.236;-6.622;2022-08-18T01:43:18;7.45;;;3.63;;
41783;SDS011;27458;53.236;-6.622;2022-08-18T01:45:44;10.50;;;4.53;;
41783;SDS011;27458;53.236;-6.622;2022-08-18T01:48:11;8.45;;;4.10;;
41783;SDS011;27458;53.236;-6.622;2022-08-18T01:50:37;8.90;;;4.07;;
41783;SDS011;27458;53.236;-6.622;2022-08-18T01:53:05;9.77;;;4.35;;
41783;SDS011;27458;53.236;-6.622;2022-08-18T01:55:34;9.38;;;4.03;;
41783;SDS011;27458;53.236;-6.622;2022-08-18T01:58:01;5.55;;;3.65;;
41783;SDS011;27458;53.236;-6.622;2022-08-18T02:00:27;8.95;;;4.88;;
41783;SDS011;27458;53.236;-6.622;2022-08-18T02:02:53;10.23;;;5.13;;
41783;SDS011;27458;53.236;-6.622;2022-08-18T02:05:28;7.18;;;4.82;;
41783;SDS011;27458;53.236;-6.622;2022-08-18T02:07:57;6.47;;;5.22;;
41783;SDS011;27458;53.236;-6.622;2022-08-18T02:10:23;8.40;;;4.85;;
41783;SDS011;27458;53.236;-6.622;2022-08-18T02:12:49;7.10;;;4.78;;
41783;SDS011;27458;53.236;-6.622;2022-08-18T02:15:15;6.85;;;4.70;;
41783;SDS011;27458;53.236;-6.622;2022-08-18T02:17:42;6.18;;;4.28;;
41783;SDS011;27458;53.236;-6.622;2022-08-18T02:20:10;6.93;;;4.68;;
41783;SDS011;27458;53.236;-6.622;2022-08-18T02:22:38;9.77;;;4.40;;
41783;SDS011;27458;53.236;-6.622;2022-08-18T02:25:04;8.20;;;4.97;;
41783;SDS011;27458;53.236;-6.622;2022-08-18T02:27:30;6.30;;;4.55;;
41783;SDS011;27458;53.236;-6.622;2022-08-18T02:29:58;8.55;;;5.25;;
41783;SDS011;27458;53.236;-6.622;2022-08-18T02:32:25;12.05;;;5.20;;
41783;SDS011;27458;53.236;-6.622;2022-08-18T02:34:51;8.90;;;4.80;;
41783;SDS011;27458;53.236;-6.622;2022-08-18T02:37:17;10.10;;;4.85;;
41783;SDS011;27458;53.236;-6.622;2022-08-18T02:39:43;6.43;;;4.57;;
41783;SDS011;27458;53.236;-6.622;2022-08-18T02:42:08;10.23;;;5.43;;
41783;SDS011;27458;53.236;-6.622;2022-08-18T02:44:34;6.32;;;4.28;;
41783;SDS011;27458;53.236;-6.622;2022-08-18T02:47:00;7.93;;;4.70;;
41783;SDS011;27458;53.236;-6.622;2022-08-18T02:49:26;6.45;;;4.03;;
41783;SDS011;27458;53.236;-6.622;2022-08-18T02:51:52;10.07;;;4.47;;
41783;SDS011;27458;53.236;-6.622;2022-08-18T02:54:19;8.05;;;4.22;;
41783;SDS011;27458;53.236;-6.622;2022-08-18T02:56:47;8.07;;;4.80;;
41783;SDS011;27458;53.236;-6.622;2022-08-18T02:59:16;4.97;;;4.47;;
41783;SDS011;27458;53.236;-6.622;2022-08-18T03:01:44;7.43;;;4.40;;
41783;SDS011;27458;53.236;-6.622;2022-08-18T03:04:13;5.80;;;4.40;;
41783;SDS011;27458;53.236;-6.622;2022-08-18T03:06:47;6.85;;;4.32;;
41783;SDS011;27458;53.236;-6.622;2022-08-18T03:09:15;6.18;;;4.45;;
41783;SDS011;27458;53.236;-6.622;2022-08-18T03:11:41;8.43;;;4.18;;
41783;SDS011;27458;53.236;-6.622;2022-08-18T03:14:08;6.35;;;4.47;;
41783;SDS011;27458;53.236;-6.622;2022-08-18T03:16:36;9.43;;;4.10;;
41783;SDS011;27458;53.236;-6.622;2022-08-18T03:19:05;6.85;;;4.28;;
41783;SDS011;27458;53.236;-6.622;2022-08-18T03:21:32;8.27;;;4.53;;
41783;SDS011;27458;53.236;-6.622;2022-08-18T03:24:02;11.32;;;5.43;;
41783;SDS011;27458;53.236;-6.622;2022-08-18T03:26:29;11.88;;;4.57;;
41783;SDS011;27458;53.236;-6.622;2022-08-18T03:28:56;6.80;;;3.97;;
41783;SDS011;27458;53.236;-6.622;2022-08-18T03:31:24;10.15;;;4.18;;
41783;SDS011;27458;53.236;-6.622;2022-08-18T03:33:51;7.35;;;3.88;;
41783;SDS011;27458;53.236;-6.622;2022-08-18T03:36:18;5.25;;;4.10;;
41783;SDS011;27458;53.236;-6.622;2022-08-18T03:38:47;7.23;;;3.50;;
41783;SDS011;27458;53.236;-6.622;2022-08-18T03:41:15;6.63;;;4.40;;
41783;SDS011;27458;53.236;-6.622;2022-08-18T03:43:43;9.67;;;4.27;;
41783;SDS011;27458;53.236;-6.622;2022-08-18T03:46:12;5.93;;;3.60;;
41783;SDS011;27458;53.236;-6.622;2022-08-18T03:48:39;6.03;;;4.10;;
41783;SDS011;27458;53.236;-6.622;2022-08-18T03:51:07;8.05;;;4.55;;
41783;SDS011;27458;53.236;-6.622;2022-08-18T03:53:33;12.05;;;4.40;;
41783;SDS011;27458;53.236;-6.622;2022-08-18T03:56:01;9.10;;;4.82;;
41783;SDS011;27458;53.236;-6.622;2022-08-18T03:58:31;7.07;;;3.88;;
41783;SDS011;27458;53.236;-6.622;2022-08-18T04:00:57;9.25;;;4.97;;
41783;SDS011;27458;53.236;-6.622;2022-08-18T04:03:22;6.13;;;4.70;;
41783;SDS011;27458;53.236;-6.622;2022-08-18T04:05:48;6.15;;;4.80;;
41783;SDS011;27458;53.236;-6.622;2022-08-18T04:08:14;8.25;;;4.25;;
41783;SDS011;27458;53.236;-6.622;2022-08-18T04:10:40;7.30;;;4.55;;
41783;SDS011;27458;53.236;-6.622;2022-08-18T04:13:08;8.40;;;4.95;;
41783;SDS011;27458;53.236;-6.622;2022-08-18T04:15:33;7.55;;;4.70;;
41783;SDS011;27458;53.236;-6.622;2022-08-18T04:18:01;6.72;;;4.50;;
41783;SDS011;27458;53.236;-6.622;2022-08-18T04:20:32;7.57;;;4.40;;
41783;SDS011;27458;53.236;-6.622;2022-08-18T04:22:58;4.72;;;3.90;;
41783;SDS011;27458;53.236;-6.622;2022-08-18T04:25:24;15.80;;;5.18;;
41783;SDS011;27458;53.236;-6.622;2022-08-18T04:27:51;9.07;;;5.13;;
41783;SDS011;27458;53.236;-6.622;2022-08-18T04:30:21;6.80;;;4.57;;
41783;SDS011;27458;53.236;-6.622;2022-08-18T04:32:48;6.57;;;4.30;;
41783;SDS011;27458;53.236;-6.622;2022-08-18T04:35:15;6.95;;;4.90;;
41783;SDS011;27458;53.236;-6.622;2022-08-18T04:37:40;7.18;;;4.68;;
41783;SDS011;27458;53.236;-6.622;2022-08-18T04:40:09;7.22;;;4.40;;
41783;SDS011;27458;53.236;-6.622;2022-08-18T04:42:35;7.30;;;4.38;;
41783;SDS011;27458;53.236;-6.622;2022-08-18T04:45:01;8.93;;;5.00;;
41783;SDS011;27458;53.236;-6.622;2022-08-18T04:47:27;10.65;;;4.80;;
41783;SDS011;27458;53.236;-6.622;2022-08-18T04:49:53;7.10;;;4.97;;
41783;SDS011;27458;53.236;-6.622;2022-08-18T04:52:18;9.35;;;4.60;;
41783;SDS011;27458;53.236;-6.622;2022-08-18T04:55:03;7.63;;;4.70;;
41783;SDS011;27458;53.236;-6.622;2022-08-18T04:57:29;6.47;;;4.22;;
41783;SDS011;27458;53.236;-6.622;2022-08-18T04:59:57;8.15;;;4.95;;
41783;SDS011;27458;53.236;-6.622;2022-08-18T05:02:23;9.00;;;4.85;;
41783;SDS011;27458;53.236;-6.622;2022-08-18T05:04:49;7.60;;;4.30;;
41783;SDS011;27458;53.236;-6.622;2022-08-18T05:07:18;7.20;;;4.60;;
41783;SDS011;27458;53.236;-6.622;2022-08-18T05:09:46;9.43;;;5.22;;
41783;SDS011;27458;53.236;-6.622;2022-08-18T05:12:13;6.82;;;4.72;;
41783;SDS011;27458;53.236;-6.622;2022-08-18T05:14:40;7.30;;;4.40;;
41783;SDS011;27458;53.236;-6.622;2022-08-18T05:17:08;6.40;;;4.35;;
41783;SDS011;27458;53.236;-6.622;2022-08-18T05:19:35;8.85;;;4.15;;
41783;SDS011;27458;53.236;-6.622;2022-08-18T05:22:00;5.90;;;3.75;;
41783;SDS011;27458;53.236;-6.622;2022-08-18T05:24:27;11.93;;;4.57;;
41783;SDS011;27458;53.236;-6.622;2022-08-18T05:26:54;7.47;;;4.13;;
41783;SDS011;27458;53.236;-6.622;2022-08-18T05:29:20;6.78;;;3.45;;
41783;SDS011;27458;53.236;-6.622;2022-08-18T05:31:50;4.25;;;3.53;;
41783;SDS011;27458;53.236;-6.622;2022-08-18T05:34:18;4.45;;;3.85;;
41783;SDS011;27458;53.236;-6.622;2022-08-18T05:44:22;5.75;;;3.20;;
41783;SDS011;27458;53.236;-6.622;2022-08-18T05:46:55;5.65;;;3.42;;
41783;SDS011;27458;53.236;-6.622;2022-08-18T05:49:30;5.63;;;3.85;;
41783;SDS011;27458;53.236;-6.622;2022-08-18T05:52:11;7.75;;;3.97;;
41783;SDS011;27458;53.236;-6.622;2022-08-18T05:54:47;4.78;;;3.08;;
41783;SDS011;27458;53.236;-6.622;2022-08-18T06:00:36;5.93;;;3.92;;
41783;SDS011;27458;53.236;-6.622;2022-08-18T06:06:00;6.35;;;3.30;;
41783;SDS011;27458;53.236;-6.622;2022-08-18T06:08:35;7.00;;;3.17;;
41783;SDS011;27458;53.236;-6.622;2022-08-18T06:11:05;4.80;;;2.67;;
41783;SDS011;27458;53.236;-6.622;2022-08-18T06:13:34;3.97;;;2.80;;
41783;SDS011;27458;53.236;-6.622;2022-08-18T06:16:19;5.85;;;2.83;;
41783;SDS011;27458;53.236;-6.622;2022-08-18T06:19:06;3.72;;;2.47;;
41783;SDS011;27458;53.236;-6.622;2022-08-18T06:21:53;3.70;;;2.50;;
41783;SDS011;27458;53.236;-6.622;2022-08-18T06:30:47;4.80;;;3.13;;
41783;SDS011;27458;53.236;-6.622;2022-08-18T06:35:22;6.07;;;3.17;;
41783;SDS011;27458;53.236;-6.622;2022-08-18T06:40:45;3.97;;;3.17;;
41783;SDS011;27458;53.236;-6.622;2022-08-18T06:43:12;5.35;;;3.63;;
41783;SDS011;27458;53.236;-6.622;2022-08-18T06:45:41;3.17;;;2.67;;
41783;SDS011;27458;53.236;-6.622;2022-08-18T06:48:11;4.38;;;2.90;;
41783;SDS011;27458;53.236;-6.622;2022-08-18T06:50:51;2.92;;;2.50;;
41783;SDS011;27458;53.236;-6.622;2022-08-18T06:53:20;4.75;;;3.00;;
41783;SDS011;27458;53.236;-6.622;2022-08-18T06:55:47;3.05;;;2.22;;
41783;SDS011;27458;53.236;-6.622;2022-08-18T07:00:44;3.13;;;2.17;;
41783;SDS011;27458;53.236;-6.622;2022-08-18T07:03:20;2.55;;;2.03;;
41783;SDS011;27458;53.236;-6.622;2022-08-18T07:06:30;4.13;;;2.30;;
41783;SDS011;27458;53.236;-6.622;2022-08-18T07:08:43;3.53;;;1.90;;
41783;SDS011;27458;53.236;-6.622;2022-08-18T07:11:29;4.63;;;2.10;;
41783;SDS011;27458;53.236;-6.622;2022-08-18T07:14:20;4.45;;;1.85;;
41783;SDS011;27458;53.236;-6.622;2022-08-18T07:19:14;2.33;;;1.50;;
41783;SDS011;27458;53.236;-6.622;2022-08-18T07:21:45;2.42;;;1.58;;
41783;SDS011;27458;53.236;-6.622;2022-08-18T07:24:26;4.15;;;1.42;;
41783;SDS011;27458;53.236;-6.622;2022-08-18T07:29:26;1.95;;;1.25;;
41783;SDS011;27458;53.236;-6.622;2022-08-18T07:31:53;2.63;;;1.35;;
41783;SDS011;27458;53.236;-6.622;2022-08-18T07:34:32;1.20;;;1.00;;
41783;SDS011;27458;53.236;-6.622;2022-08-18T07:37:18;2.10;;;1.50;;
41783;SDS011;27458;53.236;-6.622;2022-08-18T07:39:47;1.77;;;0.93;;
41783;SDS011;27458;53.236;-6.622;2022-08-18T07:42:41;1.08;;;0.98;;
41783;SDS011;27458;53.236;-6.622;2022-08-18T07:45:29;4.63;;;1.25;;
41783;SDS011;27458;53.236;-6.622;2022-08-18T07:50:27;1.50;;;0.82;;
41783;SDS011;27458;53.236;-6.622;2022-08-18T07:55:31;1.70;;;0.98;;
41783;SDS011;27458;53.236;-6.622;2022-08-18T08:11:13;1.50;;;0.82;;
41783;SDS011;27458;53.236;-6.622;2022-08-18T08:14:00;2.17;;;0.70;;
41783;SDS011;27458;53.236;-6.622;2022-08-18T08:30:27;1.23;;;0.60;;
41783;SDS011;27458;53.236;-6.622;2022-08-18T08:35:34;1.23;;;0.75;;
41783;SDS011;27458;53.236;-6.622;2022-08-18T08:38:30;1.98;;;0.80;;
41783;SDS011;27458;53.236;-6.622;2022-08-18T08:44:05;2.35;;;0.80;;
41783;SDS011;27458;53.236;-6.622;2022-08-18T08:49:35;3.47;;;0.73;;
41783;SDS011;27458;53.236;-6.622;2022-08-18T08:52:31;1.30;;;0.60;;
41783;SDS011;27458;53.236;-6.622;2022-08-18T08:55:20;1.48;;;0.80;;
41783;SDS011;27458;53.236;-6.622;2022-08-18T08:57:51;2.25;;;0.60;;
41783;SDS011;27458;53.236;-6.622;2022-08-18T09:00:35;1.50;;;0.70;;
41783;SDS011;27458;53.236;-6.622;2022-08-18T09:08:27;1.58;;;0.73;;
41783;SDS011;27458;53.236;-6.622;2022-08-18T09:19:29;0.85;;;0.40;;
41783;SDS011;27458;53.236;-6.622;2022-08-18T09:28:13;2.47;;;0.45;;
41783;SDS011;27458;53.236;-6.622;2022-08-18T09:30:47;1.95;;;0.73;;
41783;SDS011;27458;53.236;-6.622;2022-08-18T09:33:21;0.93;;;0.60;;
41783;SDS011;27458;53.236;-6.622;2022-08-18T09:44:59;1.25;;;0.50;;
41783;SDS011;27458;53.236;-6.622;2022-08-18T09:48:19;0.82;;;0.60;;
41783;SDS011;27458;53.236;-6.622;2022-08-18T09:52:51;1.17;;;0.30;;
41783;SDS011;27458;53.236;-6.622;2022-08-18T09:58:02;1.52;;;0.50;;
41783;SDS011;27458;53.236;-6.622;2022-08-18T10:00:39;1.48;;;0.45;;
41783;SDS011;27458;53.236;-6.622;2022-08-18T10:03:18;2.30;;;0.57;;
41783;SDS011;27458;53.236;-6.622;2022-08-18T10:05:56;3.67;;;3.33;;
41783;SDS011;27458;53.236;-6.622;2022-08-18T10:08:35;1.60;;;0.77;;
41783;SDS011;27458;53.236;-6.622;2022-08-18T10:11:25;0.93;;;0.50;;
41783;SDS011;27458;53.236;-6.622;2022-08-18T10:16:56;0.40;;;0.30;;
41783;SDS011;27458;53.236;-6.622;2022-08-18T10:19:41;0.35;;;0.30;;
41783;SDS011;27458;53.236;-6.622;2022-08-18T10:25:03;0.35;;;0.20;;
41783;SDS011;27458;53.236;-6.622;2022-08-18T10:31:11;0.60;;;0.20;;
41783;SDS011;27458;53.236;-6.622;2022-08-18T10:33:10;0.65;;;0.20;;
41783;SDS011;27458;53.236;-6.622;2022-08-18T10:38:11;0.15;;;0.10;;
41783;SDS011;27458;53.236;-6.622;2022-08-18T10:41:02;2.85;;;0.20;;
41783;SDS011;27458;53.236;-6.622;2022-08-18T10:43:39;2.58;;;0.30;;
41783;SDS011;27458;53.236;-6.622;2022-08-18T10:46:14;0.85;;;0.20;;
41783;SDS011;27458;53.236;-6.622;2022-08-18T10:49:00;0.38;;;0.10;;
41783;SDS011;27458;53.236;-6.622;2022-08-18T10:56:42;0.38;;;0.30;;
41783;SDS011;27458;53.236;-6.622;2022-08-18T11:04:51;0.32;;;0.13;;
41783;SDS011;27458;53.236;-6.622;2022-08-18T11:07:24;0.30;;;0.28;;
41783;SDS011;27458;53.236;-6.622;2022-08-18T11:09:53;2.45;;;0.40;;
41783;SDS011;27458;53.236;-6.622;2022-08-18T11:26:33;0.30;;;0.20;;
41783;SDS011;27458;53.236;-6.622;2022-08-18T11:32:05;0.40;;;0.15;;
41783;SDS011;27458;53.236;-6.622;2022-08-18T11:34:40;0.20;;;0.10;;
41783;SDS011;27458;53.236;-6.622;2022-08-18T11:37:19;0.13;;;0.13;;
41783;SDS011;27458;53.236;-6.622;2022-08-18T11:39:49;2.90;;;0.30;;
41783;SDS011;27458;53.236;-6.622;2022-08-18T11:42:17;0.90;;;0.30;;
41783;SDS011;27458;53.236;-6.622;2022-08-18T11:44:50;0.52;;;0.20;;
41783;SDS011;27458;53.236;-6.622;2022-08-18T11:47:29;2.63;;;0.30;;
41783;SDS011;27458;53.236;-6.622;2022-08-18T11:50:06;1.13;;;0.13;;
41783;SDS011;27458;53.236;-6.622;2022-08-18T11:52:48;0.77;;;0.30;;
41783;SDS011;27458;53.236;-6.622;2022-08-18T11:55:20;2.22;;;0.30;;
41783;SDS011;27458;53.236;-6.622;2022-08-18T11:57:54;0.20;;;0.20;;
41783;SDS011;27458;53.236;-6.622;2022-08-18T12:00:41;0.43;;;0.10;;
41783;SDS011;27458;53.236;-6.622;2022-08-18T12:03:33;0.50;;;0.20;;
41783;SDS011;27458;53.236;-6.622;2022-08-18T12:06:11;0.35;;;0.35;;
41783;SDS011;27458;53.236;-6.622;2022-08-18T12:08:58;0.35;;;0.20;;
41783;SDS011;27458;53.236;-6.622;2022-08-18T12:11:34;0.10;;;0.10;;
41783;SDS011;27458;53.236;-6.622;2022-08-18T12:14:16;0.70;;;0.20;;
41783;SDS011;27458;53.236;-6.622;2022-08-18T12:16:45;2.13;;;0.22;;
41783;SDS011;27458;53.236;-6.622;2022-08-18T12:19:11;1.48;;;0.20;;
41783;SDS011;27458;53.236;-6.622;2022-08-18T12:21:39;0.55;;;0.30;;
41783;SDS011;27458;53.236;-6.622;2022-08-18T12:24:10;0.65;;;0.30;;
41783;SDS011;27458;53.236;-6.622;2022-08-18T12:26:43;0.30;;;0.17;;
41783;SDS011;27458;53.236;-6.622;2022-08-18T12:29:09;0.65;;;0.30;;
41783;SDS011;27458;53.236;-6.622;2022-08-18T12:31:34;0.20;;;0.20;;
41783;SDS011;27458;53.236;-6.622;2022-08-18T12:34:00;0.38;;;0.20;;
41783;SDS011;27458;53.236;-6.622;2022-08-18T12:36:26;0.60;;;0.30;;
41783;SDS011;27458;53.236;-6.622;2022-08-18T12:38:53;1.23;;;0.30;;
41783;SDS011;27458;53.236;-6.622;2022-08-18T12:41:19;0.43;;;0.30;;
41783;SDS011;27458;53.236;-6.622;2022-08-18T12:43:45;0.25;;;0.25;;
41783;SDS011;27458;53.236;-6.622;2022-08-18T12:46:12;0.52;;;0.30;;
41783;SDS011;27458;53.236;-6.622;2022-08-18T12:48:38;0.60;;;0.28;;
41783;SDS011;27458;53.236;-6.622;2022-08-18T12:51:04;0.90;;;0.40;;
41783;SDS011;27458;53.236;-6.622;2022-08-18T12:53:30;0.50;;;0.43;;
41783;SDS011;27458;53.236;-6.622;2022-08-18T12:55:56;1.80;;;0.60;;
41783;SDS011;27458;53.236;-6.622;2022-08-18T12:58:23;6.80;;;5.68;;
41783;SDS011;27458;53.236;-6.622;2022-08-18T13:00:48;1.42;;;1.08;;
41783;SDS011;27458;53.236;-6.622;2022-08-18T13:03:14;1.40;;;0.52;;
41783;SDS011;27458;53.236;-6.622;2022-08-18T13:05:41;1.00;;;0.60;;
41783;SDS011;27458;53.236;-6.622;2022-08-18T13:08:08;1.02;;;0.70;;
41783;SDS011;27458;53.236;-6.622;2022-08-18T13:10:39;2.33;;;0.52;;
41783;SDS011;27458;53.236;-6.622;2022-08-18T13:13:05;0.60;;;0.50;;
41783;SDS011;27458;53.236;-6.622;2022-08-18T13:15:31;0.70;;;0.60;;
41783;SDS011;27458;53.236;-6.622;2022-08-18T13:17:59;0.70;;;0.60;;
41783;SDS011;27458;53.236;-6.622;2022-08-18T13:20:26;3.00;;;0.70;;
41783;SDS011;27458;53.236;-6.622;2022-08-18T13:22:52;1.92;;;0.50;;
41783;SDS011;27458;53.236;-6.622;2022-08-18T13:25:18;0.50;;;0.40;;
41783;SDS011;27458;53.236;-6.622;2022-08-18T13:27:44;0.50;;;0.40;;
41783;SDS011;27458;53.236;-6.622;2022-08-18T13:30:11;0.40;;;0.40;;
41783;SDS011;27458;53.236;-6.622;2022-08-18T13:32:39;0.38;;;0.38;;
41783;SDS011;27458;53.236;-6.622;2022-08-18T13:35:06;0.40;;;0.40;;
41783;SDS011;27458;53.236;-6.622;2022-08-18T13:37:33;0.63;;;0.60;;
41783;SDS011;27458;53.236;-6.622;2022-08-18T13:39:59;0.60;;;0.50;;
41783;SDS011;27458;53.236;-6.622;2022-08-18T13:42:26;0.98;;;0.80;;
41783;SDS011;27458;53.236;-6.622;2022-08-18T13:44:54;0.50;;;0.50;;
41783;SDS011;27458;53.236;-6.622;2022-08-18T13:47:25;0.73;;;0.57;;
41783;SDS011;27458;53.236;-6.622;2022-08-18T13:49:55;2.85;;;0.60;;
41783;SDS011;27458;53.236;-6.622;2022-08-18T13:52:21;0.47;;;0.45;;
41783;SDS011;27458;53.236;-6.622;2022-08-18T13:54:47;0.40;;;0.40;;
41783;SDS011;27458;53.236;-6.622;2022-08-18T13:57:13;0.57;;;0.57;;
41783;SDS011;27458;53.236;-6.622;2022-08-18T13:59:39;0.70;;;0.50;;
41783;SDS011;27458;53.236;-6.622;2022-08-18T14:02:06;0.60;;;0.60;;
41783;SDS011;27458;53.236;-6.622;2022-08-18T14:04:34;1.95;;;0.77;;
41783;SDS011;27458;53.236;-6.622;2022-08-18T14:07:02;1.23;;;0.85;;
41783;SDS011;27458;53.236;-6.622;2022-08-18T14:09:29;0.88;;;0.60;;
41783;SDS011;27458;53.236;-6.622;2022-08-18T14:11:56;0.60;;;0.50;;
41783;SDS011;27458;53.236;-6.622;2022-08-18T14:14:23;1.05;;;0.88;;
41783;SDS011;27458;53.236;-6.622;2022-08-18T14:16:48;1.98;;;0.75;;
41783;SDS011;27458;53.236;-6.622;2022-08-18T14:19:14;1.40;;;0.60;;
41783;SDS011;27458;53.236;-6.622;2022-08-18T14:21:58;0.65;;;0.50;;
41783;SDS011;27458;53.236;-6.622;2022-08-18T14:24:43;2.80;;;0.80;;
41783;SDS011;27458;53.236;-6.622;2022-08-18T14:27:31;1.48;;;0.60;;
41783;SDS011;27458;53.236;-6.622;2022-08-18T14:30:00;2.40;;;0.65;;
41783;SDS011;27458;53.236;-6.622;2022-08-18T14:32:36;1.48;;;0.60;;
41783;SDS011;27458;53.236;-6.622;2022-08-18T14:35:03;2.03;;;0.40;;
41783;SDS011;27458;53.236;-6.622;2022-08-18T14:37:31;0.55;;;0.40;;
41783;SDS011;27458;53.236;-6.622;2022-08-18T14:39:57;1.85;;;0.47;;
41783;SDS011;27458;53.236;-6.622;2022-08-18T14:42:23;2.10;;;0.40;;
41783;SDS011;27458;53.236;-6.622;2022-08-18T14:44:51;4.75;;;0.95;;
41783;SDS011;27458;53.236;-6.622;2022-08-18T14:47:16;4.90;;;0.60;;
41783;SDS011;27458;53.236;-6.622;2022-08-18T14:49:42;3.60;;;0.45;;
41783;SDS011;27458;53.236;-6.622;2022-08-18T14:52:10;2.42;;;0.93;;
41783;SDS011;27458;53.236;-6.622;2022-08-18T14:54:37;0.60;;;0.40;;
41783;SDS011;27458;53.236;-6.622;2022-08-18T14:57:03;2.30;;;0.30;;
41783;SDS011;27458;53.236;-6.622;2022-08-18T14:59:30;0.98;;;0.40;;
41783;SDS011;27458;53.236;-6.622;2022-08-18T15:01:57;2.05;;;0.40;;
41783;SDS011;27458;53.236;-6.622;2022-08-18T15:04:23;1.88;;;0.38;;
41783;SDS011;27458;53.236;-6.622;2022-08-18T15:06:51;0.88;;;0.35;;
41783;SDS011;27458;53.236;-6.622;2022-08-18T15:09:17;0.85;;;0.35;;
41783;SDS011;27458;53.236;-6.622;2022-08-18T15:11:43;0.20;;;0.10;;
41783;SDS011;27458;53.236;-6.622;2022-08-18T15:14:09;1.52;;;0.30;;
41783;SDS011;27458;53.236;-6.622;2022-08-18T15:16:35;0.40;;;0.25;;
41783;SDS011;27458;53.236;-6.622;2022-08-18T15:19:01;0.20;;;0.20;;
41783;SDS011;27458;53.236;-6.622;2022-08-18T15:21:28;0.30;;;0.22;;
41783;SDS011;27458;53.236;-6.622;2022-08-18T15:24:12;1.08;;;0.25;;
41783;SDS011;27458;53.236;-6.622;2022-08-18T15:26:56;0.60;;;0.28;;
41783;SDS011;27458;53.236;-6.622;2022-08-18T15:29:23;2.28;;;0.38;;
41783;SDS011;27458;53.236;-6.622;2022-08-18T15:31:50;1.52;;;0.45;;
41783;SDS011;27458;53.236;-6.622;2022-08-18T15:34:15;0.82;;;0.25;;
41783;SDS011;27458;53.236;-6.622;2022-08-18T15:36:42;1.35;;;0.47;;
41783;SDS011;27458;53.236;-6.622;2022-08-18T15:39:08;1.98;;;0.50;;
41783;SDS011;27458;53.236;-6.622;2022-08-18T15:41:35;2.05;;;1.15;;
41783;SDS011;27458;53.236;-6.622;2022-08-18T15:44:13;1.58;;;0.40;;
41783;SDS011;27458;53.236;-6.622;2022-08-18T15:46:41;0.40;;;0.38;;
41783;SDS011;27458;53.236;-6.622;2022-08-18T15:49:07;0.40;;;0.35;;
41783;SDS011;27458;53.236;-6.622;2022-08-18T15:51:34;1.88;;;0.60;;
41783;SDS011;27458;53.236;-6.622;2022-08-18T15:54:01;1.05;;;0.40;;
41783;SDS011;27458;53.236;-6.622;2022-08-18T15:56:27;1.05;;;0.30;;
41783;SDS011;27458;53.236;-6.622;2022-08-18T15:58:53;2.25;;;0.38;;
41783;SDS011;27458;53.236;-6.622;2022-08-18T16:01:20;1.13;;;0.50;;
41783;SDS011;27458;53.236;-6.622;2022-08-18T16:03:48;1.20;;;0.50;;
41783;SDS011;27458;53.236;-6.622;2022-08-18T16:06:16;0.85;;;0.47;;
41783;SDS011;27458;53.236;-6.622;2022-08-18T16:08:45;1.45;;;0.75;;
41783;SDS011;27458;53.236;-6.622;2022-08-18T16:11:12;1.90;;;0.43;;
41783;SDS011;27458;53.236;-6.622;2022-08-18T16:13:39;5.32;;;0.60;;
41783;SDS011;27458;53.236;-6.622;2022-08-18T16:16:10;2.00;;;0.30;;
41783;SDS011;27458;53.236;-6.622;2022-08-18T16:18:37;2.70;;;0.80;;
41783;SDS011;27458;53.236;-6.622;2022-08-18T16:21:04;8.20;;;0.70;;
41783;SDS011;27458;53.236;-6.622;2022-08-18T16:23:35;2.13;;;0.47;;
41783;SDS011;27458;53.236;-6.622;2022-08-18T16:26:06;2.53;;;0.50;;
41783;SDS011;27458;53.236;-6.622;2022-08-18T16:28:32;1.67;;;0.45;;
41783;SDS011;27458;53.236;-6.622;2022-08-18T16:30:59;1.48;;;0.50;;
41783;SDS011;27458;53.236;-6.622;2022-08-18T16:33:25;2.35;;;1.02;;
41783;SDS011;27458;53.236;-6.622;2022-08-18T16:35:51;0.85;;;0.55;;
41783;SDS011;27458;53.236;-6.622;2022-08-18T16:38:17;1.27;;;0.40;;
41783;SDS011;27458;53.236;-6.622;2022-08-18T16:40:44;1.85;;;0.45;;
41783;SDS011;27458;53.236;-6.622;2022-08-18T16:43:10;10.50;;;0.80;;
41783;SDS011;27458;53.236;-6.622;2022-08-18T16:45:39;5.80;;;0.50;;
41783;SDS011;27458;53.236;-6.622;2022-08-18T16:48:06;4.18;;;0.50;;
41783;SDS011;27458;53.236;-6.622;2022-08-18T16:50:33;2.38;;;0.52;;
41783;SDS011;27458;53.236;-6.622;2022-08-18T16:53:01;2.25;;;0.85;;
41783;SDS011;27458;53.236;-6.622;2022-08-18T16:55:28;2.83;;;0.63;;
41783;SDS011;27458;53.236;-6.622;2022-08-18T16:57:54;3.53;;;0.50;;
41783;SDS011;27458;53.236;-6.622;2022-08-18T17:00:39;4.45;;;0.40;;
41783;SDS011;27458;53.236;-6.622;2022-08-18T17:03:23;2.42;;;0.70;;
41783;SDS011;27458;53.236;-6.622;2022-08-18T17:06:09;3.38;;;0.77;;
41783;SDS011;27458;53.236;-6.622;2022-08-18T17:08:38;1.55;;;0.65;;
41783;SDS011;27458;53.236;-6.622;2022-08-18T17:11:14;2.97;;;0.80;;
41783;SDS011;27458;53.236;-6.622;2022-08-18T17:13:42;3.25;;;0.95;;
41783;SDS011;27458;53.236;-6.622;2022-08-18T17:16:09;4.07;;;0.93;;
41783;SDS011;27458;53.236;-6.622;2022-08-18T17:18:35;3.00;;;1.05;;
41783;SDS011;27458;53.236;-6.622;2022-08-18T17:21:05;2.88;;;0.70;;
41783;SDS011;27458;53.236;-6.622;2022-08-18T17:23:32;4.70;;;1.13;;